Time;durP1;ratioP1;P1;durP2;ratioP2;P2;SDS_P1;SDS_P2;PMS_P1;PMS_P2;Temp;Humidity;BMP_temperature;BMP_pressure;BME280_temperature;BME280_humidity;BME280_pressure;Samples;Min_cycle;Max_cycle;Signal;HPM_P1;HPM_P2
2022/11/12 00:00:32;;;;;;;56.07;28.43;;;;;;;;;;5013801;28;20382;-79
2022/11/12 00:02:57;;;;;;;50.60;27.13;;;;;;;;;;5012315;28;20028;-79
2022/11/12 00:05:23;;;;;;;52.10;27.47;;;;;;;;;;5013917;28;20065;-78
2022/11/12 00:07:49;;;;;;;56.77;28.67;;;;;;;;;;5013648;28;20036;-77
2022/11/12 00:10:15;;;;;;;61.33;28.50;;;;;;;;;;5013503;28;20036;-77
2022/11/12 00:12:40;;;;;;;56.10;27.83;;;;;;;;;;5012041;28;20026;-77
2022/11/12 00:15:06;;;;;;;58.10;28.90;;;;;;;;;;5013477;28;20101;-78
2022/11/12 00:17:32;;;;;;;54.93;27.10;;;;;;;;;;5044920;28;20021;-79
2022/11/12 00:19:57;;;;;;;81.30;30.80;;;;;;;;;;5011734;28;20032;-78
2022/11/12 00:22:23;;;;;;;63.53;28.30;;;;;;;;;;5012042;28;20034;-79
2022/11/12 00:24:49;;;;;;;60.70;30.37;;;;;;;;;;5013618;28;20385;-78
2022/11/12 00:27:15;;;;;;;57.10;27.47;;;;;;;;;;4993259;28;20034;-78
2022/11/12 00:29:40;;;;;;;56.40;27.10;;;;;;;;;;4993442;28;20556;-79
2022/11/12 00:32:07;;;;;;;52.93;27.77;;;;;;;;;;4992252;28;20081;-79
2022/11/12 00:34:33;;;;;;;53.87;29.10;;;;;;;;;;4991233;28;20497;-78
2022/11/12 00:37:00;;;;;;;61.97;28.77;;;;;;;;;;4993629;28;20745;-79
2022/11/12 00:39:25;;;;;;;57.83;28.50;;;;;;;;;;4991922;28;20034;-77
2022/11/12 00:41:51;;;;;;;54.80;27.93;;;;;;;;;;4993254;28;20073;-79
2022/11/12 00:44:17;;;;;;;57.80;29.33;;;;;;;;;;4992866;28;20113;-80
2022/11/12 00:46:42;;;;;;;54.50;28.90;;;;;;;;;;4993258;28;20382;-76
2022/11/12 00:49:09;;;;;;;49.43;27.37;;;;;;;;;;4991242;28;20094;-79
2022/11/12 00:51:35;;;;;;;59.63;29.47;;;;;;;;;;4993108;28;20109;-78
2022/11/12 00:54:00;;;;;;;52.87;27.03;;;;;;;;;;4991550;28;20109;-78
2022/11/12 00:56:26;;;;;;;53.20;27.67;;;;;;;;;;4992908;28;20033;-78
2022/11/12 00:58:51;;;;;;;58.80;28.30;;;;;;;;;;4992603;28;20030;-76
2022/11/12 01:01:17;;;;;;;51.23;27.17;;;;;;;;;;4991145;28;20022;-78
2022/11/12 01:03:43;;;;;;;58.60;28.00;;;;;;;;;;4992506;28;20088;-78
2022/11/12 01:06:15;;;;;;;55.07;28.70;;;;;;;;;;4992322;28;20356;-78
2022/11/12 01:08:41;;;;;;;54.38;27.10;;;;;;;;;;4992658;28;20061;-78
2022/11/12 01:11:32;;;;;;;57.87;26.87;;;;;;;;;;4991960;28;20038;-78
2022/11/12 01:14:00;;;;;;;53.63;27.23;;;;;;;;;;4991420;28;20057;-77
2022/11/12 01:16:29;;;;;;;44.67;25.60;;;;;;;;;;4991917;28;20411;-77
2022/11/12 01:18:57;;;;;;;50.13;27.43;;;;;;;;;;4990701;28;20037;-78
2022/11/12 01:21:25;;;;;;;44.87;24.67;;;;;;;;;;4991673;28;20030;-78
2022/11/12 01:23:50;;;;;;;52.90;25.87;;;;;;;;;;4991766;28;20042;-77
2022/11/12 01:26:19;;;;;;;52.93;25.57;;;;;;;;;;4991024;28;20840;-77
2022/11/12 01:28:44;;;;;;;49.87;26.13;;;;;;;;;;4991877;28;20049;-77
2022/11/12 01:31:18;;;;;;;49.63;25.73;;;;;;;;;;4990307;28;20116;-78
2022/11/12 01:33:47;;;;;;;55.80;27.00;;;;;;;;;;4990631;28;20030;-77
2022/11/12 01:36:14;;;;;;;51.87;26.73;;;;;;;;;;4992227;28;20030;-77
2022/11/12 01:38:41;;;;;;;55.47;27.07;;;;;;;;;;4991558;28;20045;-77
2022/11/12 01:41:08;;;;;;;53.90;26.93;;;;;;;;;;4992056;28;20279;-76
2022/11/12 01:43:34;;;;;;;51.07;25.57;;;;;;;;;;4992009;28;20434;-77
2022/11/12 01:46:02;;;;;;;50.37;26.50;;;;;;;;;;4994650;28;20054;-79
2022/11/12 01:48:38;;;;;;;50.00;25.73;;;;;;;;;;4996216;28;20030;-79
2022/11/12 01:51:06;;;;;;;48.13;25.00;;;;;;;;;;4994862;28;20026;-78
2022/11/12 01:53:37;;;;;;;51.17;25.43;;;;;;;;;;4996014;28;20022;-78
2022/11/12 01:56:04;;;;;;;55.50;26.27;;;;;;;;;;4996437;28;20054;-78
2022/11/12 01:58:31;;;;;;;52.07;25.70;;;;;;;;;;4994574;28;20383;-77
2022/11/12 02:00:57;;;;;;;60.00;28.33;;;;;;;;;;4993762;28;20424;-78
2022/11/12 02:03:24;;;;;;;60.70;25.43;;;;;;;;;;4996032;28;20030;-79
2022/11/12 02:05:59;;;;;;;73.53;28.87;;;;;;;;;;4995817;28;20030;-78
2022/11/12 02:08:27;;;;;;;60.53;26.40;;;;;;;;;;4995980;28;20022;-77
2022/11/12 02:10:52;;;;;;;68.33;27.90;;;;;;;;;;4995150;28;20435;-77
2022/11/12 02:16:03;;;;;;;82.53;27.93;;;;;;;;;;4996006;28;20042;-76
2022/11/12 02:18:29;;;;;;;59.90;26.73;;;;;;;;;;4995694;28;20052;-79
2022/11/12 02:20:56;;;;;;;52.30;25.97;;;;;;;;;;4994107;28;20077;-78
2022/11/12 02:23:22;;;;;;;54.63;26.13;;;;;;;;;;4995531;28;20105;-78
2022/11/12 02:25:48;;;;;;;57.23;26.67;;;;;;;;;;5001291;28;20407;-78
2022/11/12 02:28:14;;;;;;;54.50;25.37;;;;;;;;;;5014026;28;20022;-77
2022/11/12 02:30:44;;;;;;;65.23;26.60;;;;;;;;;;5013330;28;20072;-76
2022/11/12 02:33:10;;;;;;;55.90;24.93;;;;;;;;;;5014331;28;20057;-77
2022/11/12 02:35:36;;;;;;;56.70;23.43;;;;;;;;;;5046772;28;20508;-78
2022/11/12 02:38:03;;;;;;;60.00;24.33;;;;;;;;;;5014437;28;20037;-77
2022/11/12 02:40:28;;;;;;;45.40;21.67;;;;;;;;;;5013594;28;20061;-77
2022/11/12 02:42:54;;;;;;;50.57;21.47;;;;;;;;;;5012514;28;20026;-78
2022/11/12 02:45:21;;;;;;;45.63;20.73;;;;;;;;;;5011885;28;20117;-78
2022/11/12 02:47:47;;;;;;;41.10;20.23;;;;;;;;;;5012407;28;20055;-78
2022/11/12 02:50:13;;;;;;;44.83;21.63;;;;;;;;;;5011969;28;20371;-78
2022/11/12 02:52:38;;;;;;;44.97;21.13;;;;;;;;;;5015182;28;20048;-77
2022/11/12 02:55:09;;;;;;;43.13;19.93;;;;;;;;;;5012127;28;20030;-78
2022/11/12 02:57:36;;;;;;;47.43;22.30;;;;;;;;;;5014001;28;20029;-77
2022/11/12 03:00:07;;;;;;;61.97;22.40;;;;;;;;;;5013894;28;20026;-78
2022/11/12 03:02:33;;;;;;;39.95;21.92;;;;;;;;;;5014958;28;20033;-76
2022/11/12 03:04:58;;;;;;;35.90;19.57;;;;;;;;;;5012935;28;20080;-79
2022/11/12 03:07:24;;;;;;;38.87;20.20;;;;;;;;;;5011704;28;20033;-79
2022/11/12 03:09:49;;;;;;;46.00;21.93;;;;;;;;;;5012560;28;20030;-78
2022/11/12 03:12:15;;;;;;;47.27;19.80;;;;;;;;;;5011860;28;20442;-78
2022/11/12 03:14:40;;;;;;;48.00;21.77;;;;;;;;;;5011302;28;20026;-78
2022/11/12 03:17:06;;;;;;;34.40;18.63;;;;;;;;;;5012824;28;20072;-77
2022/11/12 03:19:31;;;;;;;47.40;21.27;;;;;;;;;;5011644;28;20021;-78
2022/11/12 03:21:57;;;;;;;38.07;18.67;;;;;;;;;;5011979;28;20505;-77
2022/11/12 03:24:22;;;;;;;41.00;19.33;;;;;;;;;;5012146;28;20074;-77
2022/11/12 03:26:47;;;;;;;37.23;17.47;;;;;;;;;;4998779;28;20038;-76
2022/11/12 03:29:13;;;;;;;40.33;19.70;;;;;;;;;;4992875;28;20588;-77
2022/11/12 03:31:38;;;;;;;37.57;18.47;;;;;;;;;;4991503;28;20076;-77
2022/11/12 03:34:04;;;;;;;39.40;17.73;;;;;;;;;;4991259;28;20034;-78
2022/11/12 03:36:29;;;;;;;38.00;18.93;;;;;;;;;;4992540;28;20415;-78
2022/11/12 03:38:55;;;;;;;36.17;19.10;;;;;;;;;;4990879;28;20133;-78
2022/11/12 03:41:21;;;;;;;44.07;19.27;;;;;;;;;;4946269;28;1320399;-79
2022/11/12 03:43:46;;;;;;;39.37;18.37;;;;;;;;;;4993856;28;20511;-78
2022/11/12 03:46:12;;;;;;;37.97;18.20;;;;;;;;;;4993699;28;20069;-77
2022/11/12 03:48:37;;;;;;;37.10;19.00;;;;;;;;;;4992310;28;20026;-78
2022/11/12 03:51:04;;;;;;;34.07;17.03;;;;;;;;;;4991882;28;20061;-78
2022/11/12 03:53:29;;;;;;;37.33;19.00;;;;;;;;;;4993502;28;20534;-78
2022/11/12 03:55:55;;;;;;;36.87;17.73;;;;;;;;;;4993465;28;20050;-79
2022/11/12 03:58:20;;;;;;;36.50;18.17;;;;;;;;;;4993410;28;20056;-77
2022/11/12 04:00:46;;;;;;;45.63;20.37;;;;;;;;;;4993211;28;20050;-79
2022/11/12 04:03:13;;;;;;;32.40;18.17;;;;;;;;;;4992201;28;20022;-77
2022/11/12 04:08:35;;;;;;;40.50;20.00;;;;;;;;;;4993617;28;20041;-76
2022/11/12 04:11:11;;;;;;;38.03;19.10;;;;;;;;;;4992632;28;20042;-78
2022/11/12 04:13:38;;;;;;;41.93;18.90;;;;;;;;;;4993591;28;20026;-78
2022/11/12 04:22:03;;;;;;;37.30;18.47;;;;;;;;;;4993768;28;20053;-78
2022/11/12 04:27:41;;;;;;;34.20;16.90;;;;;;;;;;4993081;28;20061;-77
2022/11/12 04:30:17;;;;;;;34.37;17.60;;;;;;;;;;4992850;28;20083;-78
2022/11/12 04:32:55;;;;;;;41.67;17.90;;;;;;;;;;4993543;28;20026;-77
2022/11/12 04:35:23;;;;;;;28.53;16.27;;;;;;;;;;4992316;28;20049;-77
2022/11/12 04:37:48;;;;;;;49.57;17.10;;;;;;;;;;4993504;28;20074;-79
2022/11/12 04:45:51;;;;;;;32.97;15.87;;;;;;;;;;4992997;28;20041;-78
2022/11/12 04:48:18;;;;;;;30.07;15.33;;;;;;;;;;4990952;28;20025;-78
2022/11/12 04:50:45;;;;;;;34.57;15.93;;;;;;;;;;4992694;28;20034;-78
2022/11/12 04:53:11;;;;;;;32.27;16.03;;;;;;;;;;4992284;28;20042;-79
2022/11/12 04:55:36;;;;;;;31.37;15.63;;;;;;;;;;4991114;28;20022;-78
2022/11/12 04:58:03;;;;;;;29.10;15.27;;;;;;;;;;4991332;28;20053;-76
2022/11/12 05:00:28;;;;;;;30.90;15.43;;;;;;;;;;4991401;28;20061;-78
2022/11/12 05:02:54;;;;;;;34.90;16.13;;;;;;;;;;4991633;28;20057;-78
2022/11/12 05:05:19;;;;;;;34.53;15.93;;;;;;;;;;4992025;28;20050;-78
2022/11/12 05:07:45;;;;;;;29.93;16.03;;;;;;;;;;4992177;28;20446;-78
2022/11/12 05:10:10;;;;;;;33.60;16.20;;;;;;;;;;4992385;28;20065;-77
2022/11/12 05:12:36;;;;;;;33.40;16.70;;;;;;;;;;4992115;28;20068;-78
2022/11/12 05:15:02;;;;;;;33.60;16.50;;;;;;;;;;4992672;28;20031;-78
2022/11/12 05:17:27;;;;;;;33.47;17.50;;;;;;;;;;4992734;28;20073;-78
2022/11/12 05:19:53;;;;;;;32.63;16.27;;;;;;;;;;4992558;28;20442;-77
2022/11/12 05:22:18;;;;;;;32.13;16.57;;;;;;;;;;4990376;28;20413;-77
2022/11/12 05:24:44;;;;;;;31.13;16.13;;;;;;;;;;4990446;28;20034;-78
2022/11/12 05:27:13;;;;;;;33.27;15.90;;;;;;;;;;5008023;28;20030;-78
2022/11/12 05:29:40;;;;;;;38.57;17.40;;;;;;;;;;5010170;28;20075;-77
2022/11/12 05:32:07;;;;;;;32.27;16.07;;;;;;;;;;5010352;28;20034;-78
2022/11/12 05:34:33;;;;;;;42.40;17.43;;;;;;;;;;5010337;28;20095;-78
2022/11/12 05:37:00;;;;;;;30.77;14.43;;;;;;;;;;5009494;28;20076;-79
2022/11/12 05:39:25;;;;;;;30.07;15.90;;;;;;;;;;5011550;28;20037;-77
2022/11/12 05:41:51;;;;;;;35.03;16.57;;;;;;;;;;5011822;28;20046;-77
2022/11/12 05:44:17;;;;;;;38.60;15.87;;;;;;;;;;5012025;28;20119;-78
2022/11/12 05:46:42;;;;;;;35.37;14.70;;;;;;;;;;5043503;28;20046;-78
2022/11/12 05:49:08;;;;;;;34.33;16.33;;;;;;;;;;5008850;28;20037;-79
2022/11/12 05:51:34;;;;;;;33.83;15.83;;;;;;;;;;5010316;28;20037;-78
2022/11/12 05:54:00;;;;;;;29.37;14.23;;;;;;;;;;5010448;28;20112;-78
2022/11/12 05:56:26;;;;;;;38.60;16.13;;;;;;;;;;5012498;28;20034;-77
2022/11/12 05:58:51;;;;;;;33.70;14.70;;;;;;;;;;5027289;28;20121;-78
2022/11/12 06:01:17;;;;;;;34.63;16.23;;;;;;;;;;5010799;28;20026;-77
2022/11/12 06:03:42;;;;;;;33.50;15.07;;;;;;;;;;5027532;28;20381;-77
2022/11/12 06:06:08;;;;;;;31.20;16.03;;;;;;;;;;5011443;28;20034;-77
2022/11/12 06:08:33;;;;;;;29.63;14.50;;;;;;;;;;5009711;28;20041;-77
2022/11/12 06:10:59;;;;;;;29.93;14.20;;;;;;;;;;5011698;28;20060;-78
2022/11/12 06:13:25;;;;;;;29.10;15.47;;;;;;;;;;5010651;28;20030;-78
2022/11/12 06:15:52;;;;;;;32.53;14.23;;;;;;;;;;5010999;28;20660;-78
2022/11/12 06:18:18;;;;;;;24.07;14.23;;;;;;;;;;5010099;28;20033;-78
2022/11/12 06:20:44;;;;;;;31.77;16.23;;;;;;;;;;5010623;28;20026;-78
2022/11/12 06:23:09;;;;;;;31.03;15.27;;;;;;;;;;5010532;28;20121;-78
2022/11/12 06:25:35;;;;;;;30.67;13.73;;;;;;;;;;5007519;28;20030;-78
2022/11/12 06:28:01;;;;;;;26.47;14.37;;;;;;;;;;4992022;28;20027;-77
2022/11/12 06:30:26;;;;;;;30.53;14.20;;;;;;;;;;4993602;28;20128;-76
2022/11/12 06:32:52;;;;;;;30.97;14.90;;;;;;;;;;4994269;28;20037;-78
2022/11/12 06:35:18;;;;;;;23.93;12.47;;;;;;;;;;4994477;28;20026;-76
2022/11/12 06:37:48;;;;;;;27.57;14.27;;;;;;;;;;4993872;28;20026;-78
2022/11/12 06:40:14;;;;;;;23.83;13.57;;;;;;;;;;4994703;28;20133;-78
2022/11/12 06:42:40;;;;;;;31.77;14.73;;;;;;;;;;4994397;28;20053;-77
2022/11/12 06:45:06;;;;;;;26.93;13.83;;;;;;;;;;4995765;28;20093;-76
2022/11/12 06:47:32;;;;;;;27.27;12.70;;;;;;;;;;4995283;28;20540;-78
2022/11/12 06:49:57;;;;;;;25.97;14.53;;;;;;;;;;4994670;28;20061;-77
2022/11/12 06:52:23;;;;;;;25.97;13.23;;;;;;;;;;4994680;28;20037;-78
2022/11/12 06:54:48;;;;;;;28.03;14.63;;;;;;;;;;4995167;28;20121;-78
2022/11/12 06:57:14;;;;;;;32.97;13.93;;;;;;;;;;4995179;28;20030;-78
2022/11/12 06:59:39;;;;;;;32.00;15.00;;;;;;;;;;4994338;28;20141;-79
2022/11/12 07:02:05;;;;;;;27.87;14.83;;;;;;;;;;4993469;28;20490;-78
2022/11/12 07:04:31;;;;;;;25.63;13.47;;;;;;;;;;4977796;28;20037;-78
2022/11/12 07:06:56;;;;;;;35.93;14.77;;;;;;;;;;4993857;28;20027;-77
2022/11/12 07:09:22;;;;;;;34.57;15.40;;;;;;;;;;4993656;28;20022;-78
2022/11/12 07:11:47;;;;;;;26.93;14.67;;;;;;;;;;4994653;28;20494;-77
2022/11/12 07:14:13;;;;;;;28.67;15.10;;;;;;;;;;4994348;28;20037;-77
2022/11/12 07:16:38;;;;;;;33.53;14.60;;;;;;;;;;4994622;28;20022;-77
2022/11/12 07:19:04;;;;;;;28.80;14.00;;;;;;;;;;4994144;28;20030;-79
2022/11/12 07:21:32;;;;;;;32.83;14.77;;;;;;;;;;4994062;28;20027;-78
2022/11/12 07:23:57;;;;;;;32.47;15.80;;;;;;;;;;4995239;28;20050;-80
2022/11/12 07:26:26;;;;;;;28.13;13.70;;;;;;;;;;4993551;28;20505;-78
2022/11/12 07:28:54;;;;;;;23.73;12.77;;;;;;;;;;4995430;28;20026;-79
2022/11/12 07:31:20;;;;;;;24.20;13.77;;;;;;;;;;5009881;28;20026;-79
2022/11/12 07:33:47;;;;;;;29.83;14.37;;;;;;;;;;4995102;28;20021;-78
2022/11/12 07:36:18;;;;;;;25.13;14.03;;;;;;;;;;4994775;28;20046;-80
2022/11/12 07:38:45;;;;;;;33.30;15.33;;;;;;;;;;4995105;28;20034;-79
2022/11/12 07:41:15;;;;;;;28.90;14.17;;;;;;;;;;4993711;28;20054;-78
2022/11/12 07:43:44;;;;;;;36.27;16.17;;;;;;;;;;4994507;28;20030;-78
2022/11/12 07:46:13;;;;;;;29.80;14.90;;;;;;;;;;4993524;28;20164;-77
2022/11/12 07:48:39;;;;;;;32.50;15.97;;;;;;;;;;4994691;28;20101;-78
2022/11/12 07:51:26;;;;;;;33.23;16.40;;;;;;;;;;4994193;28;20029;-77
2022/11/12 07:53:53;;;;;;;29.27;14.47;;;;;;;;;;4994438;28;20486;-79
2022/11/12 07:56:20;;;;;;;30.43;15.60;;;;;;;;;;4994732;28;20069;-78
2022/11/12 07:58:47;;;;;;;28.47;15.50;;;;;;;;;;4993484;28;20505;-78
2022/11/12 08:01:21;;;;;;;29.53;14.60;;;;;;;;;;4994595;28;20018;-79
2022/11/12 08:03:47;;;;;;;31.80;14.70;;;;;;;;;;4994983;28;20374;-79
2022/11/12 08:06:12;;;;;;;31.37;14.20;;;;;;;;;;4994999;28;20022;-79
2022/11/12 08:08:38;;;;;;;34.20;15.83;;;;;;;;;;4994735;28;20050;-77
2022/11/12 08:11:04;;;;;;;31.70;14.83;;;;;;;;;;4994770;28;20038;-78
2022/11/12 08:13:29;;;;;;;30.63;14.47;;;;;;;;;;4995250;28;20040;-78
2022/11/12 08:15:58;;;;;;;24.63;13.27;;;;;;;;;;4993779;28;20030;-78
2022/11/12 08:18:25;;;;;;;21.10;12.10;;;;;;;;;;4993319;28;20493;-75
2022/11/12 08:20:51;;;;;;;28.83;14.20;;;;;;;;;;4994416;28;20034;-77
2022/11/12 08:23:16;;;;;;;30.67;13.50;;;;;;;;;;5003620;28;20084;-76
2022/11/12 08:25:43;;;;;;;29.37;13.53;;;;;;;;;;5014587;28;20081;-79
2022/11/12 08:28:09;;;;;;;23.97;13.00;;;;;;;;;;5014441;28;20026;-77
2022/11/12 08:30:35;;;;;;;30.57;13.97;;;;;;;;;;5013706;28;20040;-77
2022/11/12 08:33:04;;;;;;;29.10;14.10;;;;;;;;;;5012524;28;20029;-77
2022/11/12 08:35:30;;;;;;;22.10;12.73;;;;;;;;;;5011976;28;20025;-79
2022/11/12 08:38:06;;;;;;;26.43;13.53;;;;;;;;;;5044688;28;20489;-78
2022/11/12 08:40:32;;;;;;;26.63;14.37;;;;;;;;;;5012471;28;20413;-78
2022/11/12 08:43:16;;;;;;;24.07;13.20;;;;;;;;;;5013460;28;20029;-78
2022/11/12 08:45:42;;;;;;;25.27;12.83;;;;;;;;;;5011036;28;20543;-78
2022/11/12 08:48:11;;;;;;;27.93;14.17;;;;;;;;;;5014063;28;20030;-77
2022/11/12 08:50:36;;;;;;;27.87;14.17;;;;;;;;;;5013563;28;20025;-79
2022/11/12 08:53:04;;;;;;;28.57;14.80;;;;;;;;;;5013070;28;20041;-79
2022/11/12 08:55:34;;;;;;;30.93;14.77;;;;;;;;;;5012859;28;20041;-78
2022/11/12 09:00:53;;;;;;;29.57;14.23;;;;;;;;;;5021656;28;20032;-77
2022/11/12 09:03:22;;;;;;;36.33;23.80;;;;;;;;;;5012322;28;20379;-78
2022/11/12 09:05:48;;;;;;;31.13;14.83;;;;;;;;;;5014193;28;20054;-78
2022/11/12 09:08:17;;;;;;;32.03;15.43;;;;;;;;;;5044920;28;20057;-78
2022/11/12 09:10:43;;;;;;;25.67;14.60;;;;;;;;;;5012565;28;20033;-78
2022/11/12 09:13:09;;;;;;;29.00;13.60;;;;;;;;;;5013246;28;20021;-78
2022/11/12 09:15:34;;;;;;;27.73;15.27;;;;;;;;;;5012411;28;20022;-77
2022/11/12 09:18:02;;;;;;;24.57;13.37;;;;;;;;;;5011990;28;20037;-79
2022/11/12 09:20:29;;;;;;;28.97;14.53;;;;;;;;;;5013291;28;20406;-77
2022/11/12 09:22:59;;;;;;;26.53;14.33;;;;;;;;;;5013951;28;20082;-78
2022/11/12 09:25:25;;;;;;;33.23;15.27;;;;;;;;;;5010650;28;20030;-77
2022/11/12 09:27:51;;;;;;;29.87;15.17;;;;;;;;;;4992593;28;20026;-78
2022/11/12 09:30:16;;;;;;;25.10;14.07;;;;;;;;;;4993498;28;20049;-78
2022/11/12 09:32:41;;;;;;;27.87;14.27;;;;;;;;;;4993028;28;20081;-77
2022/11/12 09:35:07;;;;;;;23.00;13.43;;;;;;;;;;4993197;28;20434;-77
2022/11/12 09:37:33;;;;;;;23.43;13.97;;;;;;;;;;4994164;28;20109;-79
2022/11/12 09:40:09;;;;;;;24.83;13.60;;;;;;;;;;4999293;28;20026;-79
2022/11/12 09:42:52;;;;;;;28.00;14.60;;;;;;;;;;4999700;28;20035;-78
2022/11/12 09:45:28;;;;;;;25.90;15.10;;;;;;;;;;5002421;28;20022;-78
2022/11/12 09:48:06;;;;;;;27.70;15.50;;;;;;;;;;4998302;28;20022;-78
2022/11/12 09:50:53;;;;;;;27.93;15.10;;;;;;;;;;4994566;28;20050;-79
2022/11/12 09:53:45;;;;;;;29.80;14.97;;;;;;;;;;4994735;28;20022;-78
2022/11/12 09:56:12;;;;;;;28.85;14.45;;;;;;;;;;4990884;28;20045;-78
2022/11/12 09:58:38;;;;;;;28.87;16.47;;;;;;;;;;4993172;28;20038;-78
2022/11/12 10:01:20;;;;;;;35.23;16.23;;;;;;;;;;4992973;28;20074;-78
2022/11/12 10:04:07;;;;;;;27.93;15.13;;;;;;;;;;4991744;28;20046;-78
2022/11/12 10:07:03;;;;;;;27.07;15.30;;;;;;;;;;4995793;28;20029;-79
2022/11/12 10:09:51;;;;;;;27.63;15.07;;;;;;;;;;4994610;28;20065;-79
2022/11/12 10:12:32;;;;;;;22.33;14.60;;;;;;;;;;4995231;28;20091;-79
2022/11/12 10:18:30;;;;;;;32.47;15.43;;;;;;;;;;4996338;28;20118;-79
2022/11/12 10:21:15;;;;;;;25.73;14.93;;;;;;;;;;4995656;28;20054;-79
2022/11/12 10:23:46;;;;;;;36.50;17.50;;;;;;;;;;4994603;28;20385;-78
2022/11/12 10:26:20;;;;;;;31.10;15.17;;;;;;;;;;5006159;28;20033;-80
2022/11/12 10:28:47;;;;;;;29.77;16.57;;;;;;;;;;5016367;28;20109;-79
2022/11/12 10:31:17;;;;;;;26.33;14.50;;;;;;;;;;5016289;28;20033;-79
2022/11/12 10:33:42;;;;;;;31.47;14.40;;;;;;;;;;5014460;28;20035;-79
2022/11/12 10:36:29;;;;;;;25.93;14.60;;;;;;;;;;5014045;28;20112;-79
2022/11/12 10:38:55;;;;;;;26.10;14.03;;;;;;;;;;5014887;28;20026;-80
2022/11/12 10:41:27;;;;;;;25.33;13.97;;;;;;;;;;5014271;28;20052;-78
2022/11/12 10:43:58;;;;;;;26.60;13.87;;;;;;;;;;5015591;28;20537;-81
2022/11/12 10:46:25;;;;;;;27.47;14.83;;;;;;;;;;5015547;28;20126;-79
2022/11/12 10:49:00;;;;;;;26.47;14.73;;;;;;;;;;5013977;28;20474;-78
2022/11/12 10:51:31;;;;;;;25.03;12.70;;;;;;;;;;5015500;28;20021;-78
2022/11/12 10:54:17;;;;;;;25.05;14.10;;;;;;;;;;5016120;28;20061;-79
2022/11/12 10:56:43;;;;;;;23.70;14.67;;;;;;;;;;5013695;28;20029;-79
2022/11/12 10:59:17;;;;;;;26.47;14.53;;;;;;;;;;5047225;28;20042;-77
2022/11/12 11:01:44;;;;;;;30.27;15.70;;;;;;;;;;5014884;28;20375;-79
2022/11/12 11:04:39;;;;;;;25.67;15.13;;;;;;;;;;5013574;28;20037;-81
2022/11/12 11:07:24;;;;;;;28.67;14.93;;;;;;;;;;5015480;28;20661;-79
2022/11/12 11:09:55;;;;;;;27.27;15.40;;;;;;;;;;5046450;28;20394;-79
2022/11/12 11:12:29;;;;;;;30.08;16.08;;;;;;;;;;5013560;28;20029;-79
2022/11/12 11:15:17;;;;;;;29.45;16.10;;;;;;;;;;5012942;28;20053;-82
2022/11/12 11:17:43;;;;;;;27.27;16.17;;;;;;;;;;5013710;28;20397;-78
2022/11/12 11:20:18;;;;;;;28.60;16.05;;;;;;;;;;5014643;28;20033;-80
2022/11/12 11:23:19;;;;;;;29.45;15.57;;;;;;;;;;5015911;28;20124;-80
2022/11/12 11:25:50;;;;;;;32.03;15.57;;;;;;;;;;5018958;28;20049;-78
2022/11/12 11:28:34;;;;;;;26.77;14.85;;;;;;;;;;5015286;28;20112;-77
2022/11/12 11:31:14;;;;;;;26.17;15.32;;;;;;;;;;5013016;28;20033;-80
2022/11/12 11:33:56;;;;;;;32.05;16.92;;;;;;;;;;5013187;28;20033;-81
2022/11/12 11:36:44;;;;;;;27.15;16.02;;;;;;;;;;5013712;28;20030;-82
2022/11/12 11:39:25;;;;;;;30.05;16.08;;;;;;;;;;5014953;28;20056;-79
2022/11/12 11:41:53;;;;;;;29.55;16.27;;;;;;;;;;5014020;28;20063;-78
2022/11/12 11:44:28;;;;;;;29.80;15.50;;;;;;;;;;5015669;28;20030;-80
2022/11/12 11:47:04;;;;;;;35.25;17.33;;;;;;;;;;5014852;28;20045;-78
2022/11/12 11:49:35;;;;;;;30.83;17.02;;;;;;;;;;5013223;28;20108;-79
2022/11/12 11:52:24;;;;;;;37.67;20.63;;;;;;;;;;5013437;28;20025;-78
2022/11/12 11:55:18;;;;;;;45.03;22.90;;;;;;;;;;5016909;28;20095;-80
2022/11/12 11:58:11;;;;;;;42.63;21.92;;;;;;;;;;5013227;28;20045;-78
2022/11/12 12:00:55;;;;;;;40.88;22.42;;;;;;;;;;5013596;28;20512;-79
2022/11/12 12:03:36;;;;;;;43.05;22.67;;;;;;;;;;5014495;28;20053;-79
2022/11/12 12:06:27;;;;;;;51.45;24.67;;;;;;;;;;5013808;28;20607;-79
2022/11/12 12:08:59;;;;;;;39.92;21.52;;;;;;;;;;5028715;28;20044;-78
2022/11/12 12:11:55;;;;;;;42.50;22.98;;;;;;;;;;5013526;28;20044;-79
2022/11/12 12:14:58;;;;;;;46.70;23.27;;;;;;;;;;5026165;28;20161;-79
2022/11/12 12:17:47;;;;;;;42.50;23.60;;;;;;;;;;5011465;28;20065;-77
2022/11/12 12:20:25;;;;;;;43.70;23.60;;;;;;;;;;5014061;28;20021;-79
2022/11/12 12:22:58;;;;;;;39.55;22.95;;;;;;;;;;5013321;28;20034;-79
2022/11/12 12:25:34;;;;;;;45.65;22.73;;;;;;;;;;5011003;28;20076;-78
2022/11/12 12:28:06;;;;;;;47.65;23.17;;;;;;;;;;4991941;28;20026;-79
2022/11/12 12:30:35;;;;;;;39.72;23.50;;;;;;;;;;4993559;28;20030;-79
2022/11/12 12:33:38;;;;;;;45.40;22.92;;;;;;;;;;4992777;28;20030;-78
2022/11/12 12:36:09;;;;;;;46.55;22.90;;;;;;;;;;4993866;28;20042;-79
2022/11/12 12:38:52;;;;;;;45.80;23.38;;;;;;;;;;4993043;28;20034;-81
2022/11/12 12:41:26;;;;;;;45.70;22.98;;;;;;;;;;4994279;28;20053;-78
2022/11/12 12:44:05;;;;;;;43.53;22.63;;;;;;;;;;4994557;28;20048;-81
2022/11/12 12:46:37;;;;;;;46.15;24.08;;;;;;;;;;4992872;28;20057;-78
2022/11/12 12:49:05;;;;;;;47.67;24.38;;;;;;;;;;4993539;28;20027;-77
2022/11/12 12:51:33;;;;;;;44.53;24.02;;;;;;;;;;4976801;28;20041;-78
2022/11/12 12:53:58;;;;;;;47.45;24.27;;;;;;;;;;4994370;28;20046;-78
2022/11/12 12:56:30;;;;;;;43.72;23.20;;;;;;;;;;4992584;28;20375;-78
2022/11/12 12:58:57;;;;;;;44.22;23.15;;;;;;;;;;4993180;28;20041;-79
2022/11/12 13:01:27;;;;;;;46.15;24.02;;;;;;;;;;4993270;28;20066;-79
2022/11/12 13:04:02;;;;;;;44.72;23.00;;;;;;;;;;4994092;28;20038;-80
2022/11/12 13:06:39;;;;;;;43.90;22.83;;;;;;;;;;4992635;28;20040;-79
2022/11/12 13:09:16;;;;;;;46.83;22.55;;;;;;;;;;4994349;28;20026;-81
2022/11/12 13:14:34;;;;;;;42.95;22.63;;;;;;;;;;4992822;28;20100;-80
2022/11/12 13:17:10;;;;;;;51.00;24.25;;;;;;;;;;4991988;28;20052;-79
2022/11/12 13:19:57;;;;;;;48.38;23.05;;;;;;;;;;4991436;28;20088;-79
2022/11/12 13:22:23;;;;;;;41.78;21.73;;;;;;;;;;4993441;28;20113;-79
2022/11/12 13:25:25;;;;;;;44.63;22.25;;;;;;;;;;4991589;28;20053;-78
2022/11/12 13:27:50;;;;;;;41.65;21.92;;;;;;;;;;4992201;28;20054;-79
2022/11/12 13:30:21;;;;;;;34.55;20.20;;;;;;;;;;4993441;28;20026;-79
2022/11/12 13:32:47;;;;;;;41.65;22.70;;;;;;;;;;4992002;28;20129;-81
2022/11/12 13:35:15;;;;;;;42.20;20.95;;;;;;;;;;4992198;28;20427;-79
2022/11/12 13:38:07;;;;;;;41.65;22.42;;;;;;;;;;4992561;28;20072;-78
2022/11/12 13:40:35;;;;;;;44.47;22.70;;;;;;;;;;4997115;28;20069;-78
2022/11/12 13:43:30;;;;;;;47.05;21.75;;;;;;;;;;4996215;28;20180;-79
2022/11/12 13:46:10;;;;;;;40.97;21.75;;;;;;;;;;4995856;28;20124;-79
2022/11/12 13:48:46;;;;;;;45.63;22.30;;;;;;;;;;4997169;28;20030;-79
2022/11/12 13:51:18;;;;;;;47.90;23.35;;;;;;;;;;4996026;28;20034;-78
2022/11/12 13:53:43;;;;;;;49.60;24.02;;;;;;;;;;4997747;28;20104;-79
2022/11/12 13:56:10;;;;;;;41.80;23.75;;;;;;;;;;4995487;28;20030;-80
2022/11/12 13:58:38;;;;;;;42.85;21.45;;;;;;;;;;4995702;28;20080;-78
2022/11/12 14:01:06;;;;;;;43.38;23.25;;;;;;;;;;4995111;28;20121;-78
2022/11/12 14:03:42;;;;;;;50.15;25.30;;;;;;;;;;4994599;28;20034;-80
2022/11/12 14:06:23;;;;;;;45.60;24.15;;;;;;;;;;4996082;28;20058;-79
2022/11/12 14:08:49;;;;;;;54.38;24.65;;;;;;;;;;4997920;28;20088;-82
2022/11/12 14:11:59;;;;;;;48.95;23.55;;;;;;;;;;4996515;28;20126;-80
2022/11/12 14:14:43;;;;;;;48.40;24.00;;;;;;;;;;4997118;28;20022;-78
2022/11/12 14:17:11;;;;;;;45.75;23.42;;;;;;;;;;4997175;28;20041;-78
2022/11/12 14:20:08;;;;;;;55.20;24.40;;;;;;;;;;4995605;28;20048;-79
2022/11/12 14:22:44;;;;;;;53.88;24.55;;;;;;;;;;4996647;28;20474;-79
2022/11/12 14:25:30;;;;;;;56.83;24.75;;;;;;;;;;4997577;28;20105;-79
2022/11/12 14:27:55;;;;;;;43.72;22.50;;;;;;;;;;5015864;28;20045;-78
2022/11/12 14:30:27;;;;;;;50.47;24.85;;;;;;;;;;5016345;28;20106;-79
2022/11/12 14:32:58;;;;;;;54.38;24.42;;;;;;;;;;5016542;28;20096;-79
2022/11/12 14:35:23;;;;;;;52.33;26.47;;;;;;;;;;5014784;28;20501;-78
2022/11/12 14:37:54;;;;;;;53.22;25.38;;;;;;;;;;5016435;28;20289;-79
2022/11/12 14:40:21;;;;;;;49.03;23.85;;;;;;;;;;5015359;28;20050;-79
2022/11/12 14:42:47;;;;;;;47.38;23.95;;;;;;;;;;5016060;28;20547;-78
2022/11/12 14:45:18;;;;;;;52.42;27.60;;;;;;;;;;5014711;28;20029;-78
2022/11/12 14:47:46;;;;;;;61.60;24.80;;;;;;;;;;5030941;28;20129;-79
2022/11/12 14:50:19;;;;;;;53.10;24.52;;;;;;;;;;5014715;28;20341;-79
2022/11/12 14:52:53;;;;;;;47.55;23.88;;;;;;;;;;5015354;28;20022;-80
2022/11/12 14:55:22;;;;;;;72.10;32.20;;;;;;;;;;5014599;28;20124;-78
2022/11/12 14:57:48;;;;;;;54.20;25.77;;;;;;;;;;5030287;28;20568;-78
2022/11/12 15:00:41;;;;;;;53.33;23.40;;;;;;;;;;5032434;28;20026;-79
2022/11/12 15:03:16;;;;;;;50.35;23.70;;;;;;;;;;5014924;28;20042;-79